createdAt,value
2023-03-10T00:01:55.444Z,75.06
2023-03-10T00:04:23.036Z,75.62
2023-03-10T00:06:50.829Z,75.76
2023-03-10T00:09:18.551Z,75.85
2023-03-10T00:11:46.186Z,75.25
2023-03-10T00:14:14.074Z,74.98
2023-03-10T00:16:42.661Z,75.06
2023-03-10T00:19:11.803Z,74.93
2023-03-10T00:21:39.566Z,74.63
2023-03-10T00:24:07.376Z,74.46
2023-03-10T00:26:35.143Z,74.54
2023-03-10T00:29:02.844Z,74.46
2023-03-10T00:31:31.345Z,74.41
2023-03-10T00:33:59.325Z,74.47
2023-03-10T00:36:31.601Z,74.47
2023-03-10T00:39:01.259Z,74.36
2023-03-10T00:41:32.427Z,74.29
2023-03-10T00:44:02.288Z,74.79
2023-03-10T00:46:33.204Z,74.78
2023-03-10T00:49:01.226Z,74.42
2023-03-10T00:51:30.378Z,74.70
2023-03-10T00:53:58.291Z,74.92
2023-03-10T00:56:26.974Z,74.55
2023-03-10T00:58:56.952Z,73.97
2023-03-10T01:01:26.797Z,74.20
2023-03-10T01:03:56.424Z,73.69
2023-03-10T01:06:24.455Z,73.97
2023-03-10T01:08:53.729Z,74.26
2023-03-10T01:11:24.612Z,74.35
2023-03-10T01:13:53.129Z,74.59
2023-03-10T01:16:20.936Z,75.79
2023-03-10T01:18:48.801Z,77.08
2023-03-10T01:21:19.073Z,77.41
2023-03-10T01:23:46.766Z,78.24
2023-03-10T01:26:18.118Z,78.48
2023-03-10T01:28:46.467Z,79.05
2023-03-10T01:31:14.594Z,79.65
2023-03-10T01:33:43.076Z,79.46
2023-03-10T01:36:11.371Z,79.49
2023-03-10T01:38:39.750Z,79.92
2023-03-10T01:41:07.781Z,80.35
2023-03-10T01:43:37.804Z,80.67
2023-03-10T01:46:38.238Z,80.69
2023-03-10T01:49:12.073Z,80.40
2023-03-10T01:51:42.483Z,80.19
2023-03-10T01:54:15.723Z,79.86
2023-03-10T01:56:43.709Z,79.29
2023-03-10T01:59:13.677Z,79.17
2023-03-10T02:01:41.449Z,78.48
2023-03-10T02:04:12.152Z,78.61
2023-03-10T02:06:41.798Z,78.56
2023-03-10T02:09:10.797Z,78.17
2023-03-10T02:11:39.607Z,77.97
2023-03-10T02:14:07.711Z,77.87
2023-03-10T02:16:36.688Z,77.82
2023-03-10T02:19:07.349Z,77.63
2023-03-10T02:21:45.640Z,77.58
2023-03-10T02:24:22.105Z,77.55
2023-03-10T02:26:57.253Z,76.45
2023-03-10T02:29:31.752Z,76.76
2023-03-10T02:32:00.206Z,76.59
2023-03-10T02:34:29.167Z,76.37
2023-03-10T02:36:57.207Z,76.05
2023-03-10T02:39:24.910Z,75.56
2023-03-10T02:41:53.870Z,75.80
2023-03-10T02:44:24.462Z,75.90
2023-03-10T02:46:53.701Z,75.49
2023-03-10T02:49:25.620Z,75.90
2023-03-10T02:51:53.589Z,76.10
2023-03-10T02:54:21.347Z,76.03
2023-03-10T02:56:49.145Z,75.90
2023-03-10T02:59:16.816Z,76.19
2023-03-10T03:01:44.605Z,75.92
2023-03-10T03:04:13.865Z,75.81
2023-03-10T03:06:41.665Z,75.45
2023-03-10T03:09:09.681Z,75.19
2023-03-10T03:11:37.409Z,74.93
2023-03-10T03:14:05.131Z,75.33
2023-03-10T03:16:32.943Z,74.30
2023-03-10T03:19:00.764Z,74.02
2023-03-10T03:21:29.923Z,74.63
2023-03-10T03:23:57.593Z,74.71
2023-03-10T03:26:26.917Z,74.32
2023-03-10T03:28:54.685Z,73.93
2023-03-10T03:31:25.483Z,73.65
2023-03-10T03:33:53.258Z,73.11
2023-03-10T03:36:21.073Z,72.87
2023-03-10T03:38:50.232Z,72.56
2023-03-10T03:41:18.033Z,72.26
2023-03-10T03:43:45.777Z,70.76
2023-03-10T03:46:13.546Z,70.03
2023-03-10T03:48:41.436Z,70.07
2023-03-10T03:51:09.410Z,69.70
2023-03-10T03:53:37.187Z,68.85
2023-03-10T03:56:06.902Z,69.40
2023-03-10T03:58:34.880Z,69.76
2023-03-10T04:01:02.634Z,69.72
2023-03-10T04:03:30.429Z,70.85
2023-03-10T04:05:58.164Z,71.53
2023-03-10T04:08:25.829Z,72.23
2023-03-10T04:10:54.433Z,73.13
2023-03-10T04:13:23.493Z,73.74
2023-03-10T04:15:56.252Z,74.21
2023-03-10T04:18:23.945Z,74.46
2023-03-10T04:20:51.795Z,74.31
2023-03-10T04:23:19.560Z,74.93
2023-03-10T04:25:47.278Z,74.94
2023-03-10T04:28:15.056Z,75.19
2023-03-10T04:30:44.790Z,75.00
2023-03-10T04:33:13.219Z,75.15
2023-03-10T04:35:42.078Z,75.43
2023-03-10T04:38:10.416Z,74.99
2023-03-10T04:40:38.222Z,75.27
2023-03-10T04:43:06.096Z,74.97
2023-03-10T04:45:33.718Z,75.16
2023-03-10T04:48:02.736Z,74.79
2023-03-10T04:50:30.509Z,74.95
2023-03-10T04:52:58.225Z,74.70
2023-03-10T04:55:25.860Z,74.26
2023-03-10T04:57:53.627Z,74.57
2023-03-10T05:00:21.725Z,74.23
2023-03-10T05:02:49.453Z,74.49
2023-03-10T05:05:18.949Z,73.89
2023-03-10T05:07:46.563Z,74.82
2023-03-10T05:10:14.301Z,74.52
2023-03-10T05:12:43.102Z,74.60
2023-03-10T05:15:11.606Z,74.66
2023-03-10T05:17:39.274Z,75.14
2023-03-10T05:20:09.256Z,74.61
2023-03-10T05:22:38.920Z,74.67
2023-03-10T05:25:21.401Z,74.82
2023-03-10T05:27:49.063Z,75.28
2023-03-10T05:30:17.662Z,75.14
2023-03-10T05:32:46.121Z,74.46
2023-03-10T05:35:15.436Z,74.47
2023-03-10T05:37:45.225Z,74.38
2023-03-10T05:40:15.899Z,74.75
2023-03-10T05:42:43.654Z,74.39
2023-03-10T05:45:12.157Z,74.09
2023-03-10T05:47:39.788Z,73.93
2023-03-10T05:50:08.777Z,73.94
2023-03-10T05:52:38.429Z,73.95
2023-03-10T05:55:09.833Z,73.44
2023-03-10T05:57:37.726Z,73.54
2023-03-10T06:00:10.117Z,73.27
2023-03-10T06:02:39.101Z,73.38
2023-03-10T06:05:11.231Z,73.09
2023-03-10T06:07:39.261Z,72.78
2023-03-10T06:10:10.607Z,73.24
2023-03-10T06:12:38.667Z,72.92
2023-03-10T06:15:07.569Z,73.05
2023-03-10T06:17:35.185Z,72.93
2023-03-10T06:20:02.988Z,72.59
2023-03-10T06:22:31.460Z,72.77
2023-03-10T06:24:59.158Z,72.72
2023-03-10T06:27:28.346Z,72.82
2023-03-10T06:29:56.223Z,72.95
2023-03-10T06:32:24.154Z,72.83
2023-03-10T06:34:51.832Z,72.70
2023-03-10T06:37:19.538Z,72.69
2023-03-10T06:39:47.131Z,72.84
2023-03-10T06:42:14.699Z,72.22
2023-03-10T06:44:43.672Z,72.18
2023-03-10T06:47:11.534Z,71.83
2023-03-10T06:49:39.238Z,71.67
2023-03-10T06:52:07.227Z,71.55
2023-03-10T06:54:34.908Z,70.75
2023-03-10T06:57:02.561Z,70.15
2023-03-10T06:59:32.665Z,69.95
2023-03-10T07:02:01.670Z,68.98
2023-03-10T07:04:29.467Z,68.88
2023-03-10T07:06:57.108Z,67.89
2023-03-10T07:09:24.807Z,68.16
2023-03-10T07:11:52.482Z,67.83
2023-03-10T07:14:20.124Z,70.73
2023-03-10T07:16:47.975Z,73.54
2023-03-10T07:19:17.045Z,74.11
2023-03-10T07:21:44.711Z,75.54
2023-03-10T07:24:12.403Z,76.34
2023-03-10T07:26:40.350Z,77.77
2023-03-10T07:29:08.374Z,80.35
2023-03-10T07:31:37.246Z,80.70
2023-03-10T07:34:04.928Z,82.88
2023-03-10T07:36:33.878Z,83.29
2023-03-10T07:39:01.608Z,83.77
2023-03-10T07:41:29.566Z,83.98
2023-03-10T07:43:57.432Z,84.10
2023-03-10T07:46:25.123Z,83.50
2023-03-10T07:48:53.882Z,84.62
2023-03-10T07:51:21.829Z,84.74
2023-03-10T07:53:50.885Z,84.98
2023-03-10T07:56:18.531Z,84.29
2023-03-10T07:58:46.165Z,85.27
2023-03-10T08:01:16.553Z,84.62
2023-03-10T08:03:44.543Z,84.90
2023-03-10T08:06:17.453Z,84.12
2023-03-10T08:08:45.156Z,84.15
2023-03-10T08:11:14.272Z,84.70
2023-03-10T08:13:42.253Z,84.61
2023-03-10T08:16:09.962Z,83.70
2023-03-10T08:18:37.981Z,83.73
2023-03-10T08:21:06.731Z,83.73
2023-03-10T08:23:35.552Z,83.48
2023-03-10T08:26:05.642Z,83.76
2023-03-10T08:28:37.609Z,83.57
2023-03-10T08:31:09.568Z,83.62
2023-03-10T08:33:37.770Z,83.64
2023-03-10T08:36:08.611Z,83.73
2023-03-10T08:38:36.738Z,82.81
2023-03-10T08:41:15.762Z,82.77
2023-03-10T08:43:48.567Z,82.99
2023-03-10T08:46:17.681Z,79.84
2023-03-10T08:48:45.330Z,78.83
2023-03-10T08:51:15.787Z,77.75
2023-03-10T08:53:46.562Z,75.63
2023-03-10T08:56:14.462Z,75.05
2023-03-10T08:58:43.059Z,75.17
2023-03-10T09:01:13.981Z,75.81
2023-03-10T09:03:45.691Z,74.49
2023-03-10T09:06:14.640Z,73.30
2023-03-10T09:08:42.723Z,74.49
2023-03-10T09:11:11.328Z,73.20
2023-03-10T09:13:39.364Z,74.86
2023-03-10T09:16:11.127Z,74.58
2023-03-10T09:18:40.541Z,76.91
2023-03-10T09:21:08.610Z,77.54
2023-03-10T09:23:36.374Z,76.41
2023-03-10T09:26:04.284Z,77.92
2023-03-10T09:28:32.014Z,78.31
2023-03-10T09:30:59.766Z,80.03
2023-03-10T09:33:27.841Z,79.13
2023-03-10T09:36:06.314Z,75.84
2023-03-10T09:38:35.277Z,73.53
2023-03-10T09:41:20.047Z,74.32
2023-03-10T09:43:55.557Z,73.87
2023-03-10T09:46:26.808Z,73.23
2023-03-10T09:49:01.426Z,74.74
2023-03-10T09:51:30.889Z,74.57
2023-03-10T09:54:11.563Z,75.42
2023-03-10T09:56:39.286Z,75.90
2023-03-10T09:59:14.109Z,77.37
2023-03-10T10:01:45.905Z,76.79
2023-03-10T10:04:18.977Z,76.85
2023-03-10T10:06:50.924Z,76.16
2023-03-10T10:09:27.287Z,76.62
2023-03-10T10:11:55.931Z,75.86
2023-03-10T10:14:30.433Z,72.43
2023-03-10T10:17:05.971Z,71.55
2023-03-10T10:19:36.799Z,73.56
2023-03-10T10:22:11.419Z,73.71
2023-03-10T10:24:40.543Z,73.12
2023-03-10T10:27:08.334Z,71.83
2023-03-10T10:29:37.617Z,72.95
2023-03-10T10:32:08.342Z,74.18
2023-03-10T10:34:38.579Z,75.13
2023-03-10T10:37:24.550Z,74.58
2023-03-10T10:39:54.279Z,76.73
2023-03-10T10:42:26.026Z,74.98
2023-03-10T10:44:56.059Z,75.31
2023-03-10T10:47:30.462Z,73.89
2023-03-10T10:50:18.103Z,74.48
2023-03-10T10:52:49.307Z,74.45
2023-03-10T10:55:29.840Z,74.01
2023-03-10T10:58:01.450Z,74.16
2023-03-10T11:00:33.200Z,73.89
2023-03-10T11:03:01.792Z,73.98
2023-03-10T11:05:35.964Z,73.95
2023-03-10T11:08:20.009Z,75.05
2023-03-10T11:10:56.065Z,74.90
2023-03-10T11:13:30.351Z,73.97
2023-03-10T11:16:04.492Z,74.99
2023-03-10T11:18:37.990Z,72.77
2023-03-10T11:21:13.231Z,72.60
2023-03-10T11:23:51.078Z,72.65
2023-03-10T11:26:28.821Z,71.44
2023-03-10T11:29:01.979Z,71.15
2023-03-10T11:31:41.222Z,74.22
2023-03-10T11:34:19.326Z,75.23
2023-03-10T11:36:57.265Z,75.50
2023-03-10T11:39:36.363Z,74.12
2023-03-10T11:42:08.537Z,76.08
2023-03-10T11:44:41.905Z,75.48
2023-03-10T11:47:20.138Z,75.99
2023-03-10T11:49:55.494Z,74.78
2023-03-10T11:52:26.015Z,74.57
2023-03-10T11:55:05.701Z,72.94
2023-03-10T11:57:40.891Z,72.49
2023-03-10T12:00:20.541Z,70.42
2023-03-10T12:03:03.150Z,71.55
2023-03-10T12:05:41.044Z,72.71
2023-03-10T12:08:09.938Z,74.48
2023-03-10T12:10:42.241Z,74.88
2023-03-10T12:13:19.755Z,75.66
2023-03-10T12:15:48.951Z,77.02
2023-03-10T12:18:16.755Z,78.48
2023-03-10T12:20:44.484Z,78.12
2023-03-10T12:23:31.268Z,80.09
2023-03-10T12:26:02.197Z,79.59
2023-03-10T12:28:30.303Z,80.24
2023-03-10T12:30:59.331Z,80.30
2023-03-10T12:33:50.297Z,79.91
2023-03-10T12:36:27.814Z,78.53
2023-03-10T12:38:57.479Z,77.41
2023-03-10T12:41:45.880Z,75.79
2023-03-10T12:44:57.968Z,74.85
2023-03-10T12:47:31.759Z,73.67
2023-03-10T12:50:04.238Z,73.27
2023-03-10T12:52:39.581Z,72.36
2023-03-10T12:55:18.645Z,75.40
2023-03-10T12:57:57.305Z,76.11
2023-03-10T13:00:40.190Z,78.11
2023-03-10T13:03:19.435Z,79.92
2023-03-10T13:06:04.596Z,79.05
2023-03-10T13:08:42.175Z,79.12
2023-03-10T13:11:24.238Z,78.29
2023-03-10T13:13:58.317Z,78.39
2023-03-10T13:16:26.125Z,78.31
2023-03-10T13:18:55.263Z,77.61
2023-03-10T13:21:25.255Z,77.90
2023-03-10T13:23:53.407Z,77.93
2023-03-10T13:26:21.880Z,77.77
2023-03-10T13:28:55.957Z,77.87
2023-03-10T13:31:26.652Z,78.78
2023-03-10T13:33:55.779Z,77.74
2023-03-10T13:36:35.043Z,79.09
2023-03-10T13:39:05.113Z,78.93
2023-03-10T13:41:37.388Z,79.42
2023-03-10T13:44:06.966Z,79.39
2023-03-10T13:46:35.748Z,79.16
2023-03-10T13:49:06.943Z,78.96
2023-03-10T13:51:36.120Z,80.43
2023-03-10T13:54:22.861Z,78.74
2023-03-10T13:56:53.134Z,79.58
2023-03-10T13:59:24.946Z,79.26
2023-03-10T14:01:55.402Z,77.91
2023-03-10T14:04:45.886Z,76.79
2023-03-10T14:07:18.296Z,76.70
2023-03-10T14:09:47.717Z,77.75
2023-03-10T14:12:16.289Z,79.54
2023-03-10T14:14:45.294Z,79.85
2023-03-10T14:17:31.449Z,79.83
2023-03-10T14:19:59.290Z,80.33
2023-03-10T14:22:35.310Z,79.32
2023-03-10T14:25:07.323Z,80.39
2023-03-10T14:27:36.354Z,78.11
2023-03-10T14:30:18.559Z,77.28
2023-03-10T14:32:46.909Z,77.79
2023-03-10T14:35:16.776Z,79.01
2023-03-10T14:37:44.362Z,78.11
2023-03-10T14:40:13.488Z,77.24
2023-03-10T14:42:42.431Z,76.55
2023-03-10T14:45:26.469Z,76.60
2023-03-10T14:47:55.909Z,79.40
2023-03-10T14:50:25.358Z,79.05
2023-03-10T14:52:53.249Z,79.90
2023-03-10T14:55:20.963Z,78.11
2023-03-10T14:57:50.776Z,77.12
2023-03-10T15:00:22.867Z,76.29
2023-03-10T15:02:50.539Z,74.87
2023-03-10T15:05:20.070Z,74.33
2023-03-10T15:07:48.771Z,73.84
2023-03-10T15:10:18.085Z,73.70
2023-03-10T15:12:45.954Z,73.15
2023-03-10T15:15:17.300Z,72.30
2023-03-10T15:17:47.032Z,72.30
2023-03-10T15:20:18.919Z,75.62
2023-03-10T15:22:47.199Z,73.38
2023-03-10T15:25:16.487Z,72.75
2023-03-10T15:27:44.625Z,72.46
2023-03-10T15:30:18.270Z,70.82
2023-03-10T15:32:47.374Z,71.09
2023-03-10T15:35:16.653Z,70.06
2023-03-10T15:37:44.995Z,70.64
2023-03-10T15:40:16.798Z,70.70
2023-03-10T15:42:44.577Z,69.19
2023-03-10T15:45:13.322Z,69.76
2023-03-10T15:47:41.008Z,69.54
2023-03-10T15:50:11.680Z,69.03
2023-03-10T15:52:39.760Z,69.31
2023-03-10T15:55:08.090Z,70.09
2023-03-10T15:57:35.779Z,71.91
2023-03-10T16:00:04.003Z,72.71
2023-03-10T16:02:31.830Z,73.28
2023-03-10T16:04:59.523Z,71.25
2023-03-10T16:07:28.767Z,70.52
2023-03-10T16:09:56.590Z,70.41
2023-03-10T16:12:24.292Z,70.14
2023-03-10T16:14:52.099Z,68.96
2023-03-10T16:17:20.799Z,69.72
2023-03-10T16:19:48.846Z,69.07
2023-03-10T16:22:16.596Z,68.86
2023-03-10T16:24:45.735Z,68.61
2023-03-10T16:27:14.316Z,69.11
2023-03-10T16:29:41.983Z,68.77
2023-03-10T16:32:11.890Z,67.15
2023-03-10T16:34:39.666Z,67.33
2023-03-10T16:37:08.156Z,66.26
2023-03-10T16:39:36.614Z,66.71
2023-03-10T16:42:06.492Z,67.40
2023-03-10T16:44:34.151Z,67.45
2023-03-10T16:47:01.750Z,67.84
2023-03-10T16:49:32.036Z,67.56
2023-03-10T16:51:59.985Z,68.61
2023-03-10T16:54:27.710Z,68.74
2023-03-10T16:56:57.156Z,67.98
2023-03-10T16:59:26.302Z,68.37
2023-03-10T17:01:54.132Z,68.21
2023-03-10T17:04:21.848Z,68.48
2023-03-10T17:06:49.712Z,68.99
2023-03-10T17:09:18.269Z,68.34
2023-03-10T17:11:47.461Z,67.13
2023-03-10T17:14:17.378Z,66.78
2023-03-10T17:16:46.867Z,68.30
2023-03-10T17:19:16.248Z,68.23
2023-03-10T17:21:46.560Z,68.89
2023-03-10T17:24:15.237Z,69.28
2023-03-10T17:26:43.434Z,69.01
2023-03-10T17:29:11.582Z,69.50
2023-03-10T17:31:39.731Z,69.56
2023-03-10T17:34:11.760Z,69.50
2023-03-10T17:36:39.703Z,69.70
2023-03-10T17:39:08.363Z,69.80
2023-03-10T17:41:36.900Z,70.08
2023-03-10T17:44:05.336Z,69.42
2023-03-10T17:46:33.403Z,68.57
2023-03-10T17:49:01.409Z,68.83
2023-03-10T17:51:32.188Z,69.25
2023-03-10T17:54:01.798Z,69.09
2023-03-10T17:56:30.076Z,69.09
2023-03-10T17:58:59.191Z,68.80
2023-03-10T18:01:28.922Z,69.65
2023-03-10T18:03:57.558Z,69.46
2023-03-10T18:06:27.164Z,69.30
2023-03-10T18:08:56.866Z,69.44
2023-03-10T18:11:25.411Z,68.67
2023-03-10T18:13:53.452Z,68.86
2023-03-10T18:16:23.036Z,69.20
2023-03-10T18:18:50.968Z,69.05
2023-03-10T18:21:20.187Z,69.15
2023-03-10T18:23:48.903Z,71.49
2023-03-10T18:26:19.974Z,74.12
2023-03-10T18:28:47.904Z,76.43
2023-03-10T18:31:19.494Z,77.49
2023-03-10T18:33:48.293Z,79.57
2023-03-10T18:36:17.176Z,81.40
2023-03-10T18:38:45.180Z,81.21
2023-03-10T18:41:13.094Z,80.87
2023-03-10T18:43:42.074Z,82.04
2023-03-10T18:46:09.767Z,81.03
2023-03-10T18:48:37.394Z,79.31
2023-03-10T18:51:05.471Z,79.89
2023-03-10T18:53:33.154Z,77.20
2023-03-10T18:56:01.235Z,75.98
2023-03-10T18:58:29.831Z,72.18
2023-03-10T19:00:59.124Z,71.34
2023-03-10T19:03:29.699Z,69.19
2023-03-10T19:05:57.919Z,67.72
2023-03-10T19:08:27.079Z,65.82
2023-03-10T19:10:55.344Z,65.94
2023-03-10T19:13:23.275Z,65.94
2023-03-10T19:15:51.268Z,65.61
2023-03-10T19:18:20.467Z,64.36
2023-03-10T19:20:48.103Z,63.70
2023-03-10T19:23:16.221Z,62.67
2023-03-10T19:25:44.395Z,64.24
2023-03-10T19:28:12.020Z,64.97
2023-03-10T19:30:43.021Z,63.51
2023-03-10T19:33:11.618Z,63.20
2023-03-10T19:35:40.713Z,62.84
2023-03-10T19:38:08.723Z,62.74
2023-03-10T19:40:36.699Z,62.93
2023-03-10T19:43:04.391Z,63.05
2023-03-10T19:45:32.186Z,62.13
2023-03-10T19:47:59.818Z,62.23
2023-03-10T19:50:28.083Z,62.23
2023-03-10T19:52:57.050Z,62.95
2023-03-10T19:55:27.336Z,62.61
2023-03-10T19:57:56.522Z,63.22
2023-03-10T20:00:31.384Z,63.59
2023-03-10T20:02:59.605Z,62.95
2023-03-10T20:05:27.791Z,62.96
2023-03-10T20:07:56.806Z,63.34
2023-03-10T20:10:24.478Z,63.33
2023-03-10T20:12:52.600Z,63.85
2023-03-10T20:15:20.812Z,64.35
2023-03-10T20:17:48.896Z,62.39
2023-03-10T20:20:20.008Z,62.55
2023-03-10T20:22:49.607Z,62.68
2023-03-10T20:25:21.388Z,61.88
2023-03-10T20:27:50.809Z,61.37
2023-03-10T20:30:21.317Z,61.97
2023-03-10T20:32:49.182Z,60.91
2023-03-10T20:35:18.313Z,60.71
2023-03-10T20:37:46.335Z,61.32
2023-03-10T20:40:16.533Z,60.51
2023-03-10T20:42:45.677Z,60.93
2023-03-10T20:45:13.842Z,61.03
2023-03-10T20:47:42.134Z,60.51
2023-03-10T20:50:13.365Z,60.95
2023-03-10T20:52:43.168Z,60.99
2023-03-10T20:55:17.562Z,61.56
2023-03-10T20:57:47.123Z,61.51
2023-03-10T21:00:17.625Z,61.50
2023-03-10T21:02:46.624Z,61.79
2023-03-10T21:05:15.534Z,61.61
2023-03-10T21:07:43.589Z,62.08
2023-03-10T21:10:17.927Z,63.23
2023-03-10T21:12:47.198Z,62.03
2023-03-10T21:15:16.385Z,62.16
2023-03-10T21:17:44.848Z,62.47
2023-03-10T21:20:17.546Z,62.33
2023-03-10T21:22:45.596Z,63.14
2023-03-10T21:25:15.763Z,63.38
2023-03-10T21:27:44.205Z,61.99
2023-03-10T21:30:15.317Z,62.99
2023-03-10T21:32:43.054Z,62.35
2023-03-10T21:35:13.832Z,63.12
2023-03-10T21:37:42.747Z,61.95
2023-03-10T21:40:15.050Z,63.11
2023-03-10T21:42:42.854Z,62.76
2023-03-10T21:45:14.362Z,62.76
2023-03-10T21:47:42.100Z,63.45
2023-03-10T21:50:11.273Z,65.05
2023-03-10T21:52:38.882Z,65.17
2023-03-10T21:55:08.461Z,65.69
2023-03-10T21:57:36.788Z,66.25
2023-03-10T22:00:09.452Z,67.09
2023-03-10T22:02:38.483Z,66.48
2023-03-10T22:05:06.865Z,67.42
2023-03-10T22:07:34.803Z,67.14
2023-03-10T22:10:02.481Z,66.21
2023-03-10T22:12:30.128Z,66.91
2023-03-10T22:14:57.896Z,66.97
2023-03-10T22:17:25.696Z,68.93
2023-03-10T22:19:55.707Z,69.39
2023-03-10T22:22:24.095Z,69.17
2023-03-10T22:24:51.847Z,68.90
2023-03-10T22:27:19.521Z,67.85
2023-03-10T22:29:47.256Z,68.56
2023-03-10T22:32:14.964Z,67.58
2023-03-10T22:34:42.871Z,68.10
2023-03-10T22:37:12.345Z,69.01
2023-03-10T22:39:40.208Z,67.72
2023-03-10T22:42:08.794Z,67.28
2023-03-10T22:44:37.101Z,67.96
2023-03-10T22:47:05.076Z,68.12
2023-03-10T22:49:34.080Z,66.42
2023-03-10T22:52:02.637Z,66.91
2023-03-10T22:54:31.616Z,66.85
2023-03-10T22:56:59.504Z,67.99
2023-03-10T22:59:27.271Z,67.38
2023-03-10T23:01:55.095Z,66.43
2023-03-10T23:04:22.845Z,67.04
2023-03-10T23:06:51.380Z,67.43
2023-03-10T23:09:19.102Z,67.47
2023-03-10T23:11:48.980Z,66.63
2023-03-10T23:14:16.959Z,66.61
2023-03-10T23:16:44.793Z,65.06
2023-03-10T23:19:12.485Z,61.81
2023-03-10T23:21:40.083Z,63.17
2023-03-10T23:24:08.000Z,63.95
2023-03-10T23:26:37.393Z,64.35
2023-03-10T23:29:06.482Z,64.44
2023-03-10T23:31:34.114Z,64.10
2023-03-10T23:34:01.900Z,64.76
2023-03-10T23:36:31.024Z,63.05
2023-03-10T23:38:58.767Z,62.44
2023-03-10T23:41:26.548Z,62.37
2023-03-10T23:43:55.051Z,61.98
2023-03-10T23:46:24.621Z,62.04
2023-03-10T23:48:52.352Z,62.23
2023-03-10T23:51:20.065Z,62.00
2023-03-10T23:53:47.747Z,62.86
2023-03-10T23:56:15.499Z,61.63
2023-03-10T23:58:43.173Z,61.35
